Main page
METAR-TAF:

METAR-TAF

Airports :

Kuwait City, Kuwait

Kuwait International Airport

latitude: 29-13N, longitude: 047-59E, elevation: 55 m

Current weather observation

The report was made 37 minutes ago, at 22:00 UTC
Wind 3 kt from the Southwest
Temperature 24°C
Humidity 22%
Pressure 1010 hPa
Visibility 10 km or more
no clouds below 1500 m and no cumulonimbus

METAR: OKBK 272200Z 22003KT CAVOK 24/01 Q1010 NOSIG

Time: 01:37 (22:37 UTC)

Forecast

The report was made 5 hours and 52 minutes ago, at 16:45 UTC
Forecast valid from 27 at 18 UTC to 28 at 24 UTC
Wind 3 kt from variable directions
Visibility: 7000 m
Becoming
from 28 at 07 UTC to 28 at 09 UTC
Wind 10 kt from the Southeast

TAF: OKBK 271645Z 2718/2824 VRB03KT 7000 NSC BECMG 2807/2809 14010KT

Weather observations and forecasts of more than 4000 airports (METAR and TAF reports).

The available stations are represented by yellow and red dots on the map.

Hover mouse over dot to see the name of the station.

Then click to see weather observations and forecasts.

To change the map : click on the green buttons with a black cross to zoom in, on the green button with a dash to zoom out, or on the green arrows for adjacent maps.


METAR-TAF: